sensor_id;sensor_type;location;lat;lon;timestamp;P1;durP1;ratioP1;P2;durP2;ratioP2
27201;SDS011;14717;46.924;15.474;2023-05-02T00:01:48;8.63;;;4.23;;
27201;SDS011;14717;46.924;15.474;2023-05-02T00:04:14;7.05;;;4.20;;
27201;SDS011;14717;46.924;15.474;2023-05-02T00:09:06;8.32;;;4.97;;
27201;SDS011;14717;46.924;15.474;2023-05-02T00:11:32;7.85;;;4.93;;
27201;SDS011;14717;46.924;15.474;2023-05-02T00:16:23;7.18;;;5.15;;
27201;SDS011;14717;46.924;15.474;2023-05-02T00:18:48;7.38;;;4.60;;
27201;SDS011;14717;46.924;15.474;2023-05-02T00:23:39;10.87;;;5.23;;
27201;SDS011;14717;46.924;15.474;2023-05-02T00:28:32;8.38;;;5.22;;
27201;SDS011;14717;46.924;15.474;2023-05-02T00:33:23;7.17;;;4.73;;
27201;SDS011;14717;46.924;15.474;2023-05-02T00:35:48;8.07;;;4.60;;
27201;SDS011;14717;46.924;15.474;2023-05-02T00:40:43;7.85;;;4.30;;
27201;SDS011;14717;46.924;15.474;2023-05-02T00:43:16;9.48;;;4.40;;
27201;SDS011;14717;46.924;15.474;2023-05-02T00:48:08;6.90;;;4.63;;
27201;SDS011;14717;46.924;15.474;2023-05-02T00:50:35;8.10;;;4.40;;
27201;SDS011;14717;46.924;15.474;2023-05-02T00:53:02;8.15;;;4.90;;
27201;SDS011;14717;46.924;15.474;2023-05-02T00:55:28;8.35;;;4.72;;
27201;SDS011;14717;46.924;15.474;2023-05-02T00:57:55;7.30;;;4.65;;
27201;SDS011;14717;46.924;15.474;2023-05-02T01:00:20;7.25;;;4.53;;
27201;SDS011;14717;46.924;15.474;2023-05-02T01:02:52;8.18;;;4.63;;
27201;SDS011;14717;46.924;15.474;2023-05-02T01:05:39;8.57;;;4.78;;
27201;SDS011;14717;46.924;15.474;2023-05-02T01:08:17;8.43;;;4.75;;
27201;SDS011;14717;46.924;15.474;2023-05-02T01:13:28;9.75;;;5.07;;
27201;SDS011;14717;46.924;15.474;2023-05-02T01:15:58;8.05;;;5.15;;
27201;SDS011;14717;46.924;15.474;2023-05-02T01:18:27;6.13;;;4.45;;
27201;SDS011;14717;46.924;15.474;2023-05-02T01:21:02;7.43;;;4.22;;
27201;SDS011;14717;46.924;15.474;2023-05-02T01:26:37;7.25;;;4.35;;
27201;SDS011;14717;46.924;15.474;2023-05-02T01:29:22;6.78;;;4.28;;
27201;SDS011;14717;46.924;15.474;2023-05-02T01:31:49;7.55;;;4.60;;
27201;SDS011;14717;46.924;15.474;2023-05-02T01:34:15;9.05;;;5.03;;
27201;SDS011;14717;46.924;15.474;2023-05-02T01:36:44;7.68;;;4.72;;
27201;SDS011;14717;46.924;15.474;2023-05-02T01:39:13;9.93;;;5.53;;
27201;SDS011;14717;46.924;15.474;2023-05-02T01:41:42;9.40;;;4.80;;
27201;SDS011;14717;46.924;15.474;2023-05-02T01:44:09;8.80;;;4.93;;
27201;SDS011;14717;46.924;15.474;2023-05-02T01:46:36;7.57;;;5.18;;
27201;SDS011;14717;46.924;15.474;2023-05-02T01:49:05;6.32;;;4.20;;
27201;SDS011;14717;46.924;15.474;2023-05-02T01:51:32;8.00;;;4.78;;
27201;SDS011;14717;46.924;15.474;2023-05-02T01:54:00;9.13;;;5.15;;
27201;SDS011;14717;46.924;15.474;2023-05-02T01:56:30;9.77;;;5.10;;
27201;SDS011;14717;46.924;15.474;2023-05-02T01:59:01;7.28;;;4.75;;
27201;SDS011;14717;46.924;15.474;2023-05-02T02:01:30;7.65;;;4.63;;
27201;SDS011;14717;46.924;15.474;2023-05-02T02:03:57;8.50;;;5.15;;
27201;SDS011;14717;46.924;15.474;2023-05-02T02:06:24;36.80;;;16.08;;
27201;SDS011;14717;46.924;15.474;2023-05-02T02:08:51;35.05;;;14.77;;
27201;SDS011;14717;46.924;15.474;2023-05-02T02:11:17;27.77;;;13.52;;
27201;SDS011;14717;46.924;15.474;2023-05-02T02:13:50;33.22;;;16.25;;
27201;SDS011;14717;46.924;15.474;2023-05-02T02:16:23;21.75;;;10.68;;
27201;SDS011;14717;46.924;15.474;2023-05-02T02:18:53;14.57;;;7.15;;
27201;SDS011;14717;46.924;15.474;2023-05-02T02:21:21;12.73;;;7.43;;
27201;SDS011;14717;46.924;15.474;2023-05-02T02:23:50;15.00;;;8.23;;
27201;SDS011;14717;46.924;15.474;2023-05-02T02:26:20;19.85;;;10.45;;
27201;SDS011;14717;46.924;15.474;2023-05-02T02:28:46;16.48;;;9.52;;
27201;SDS011;14717;46.924;15.474;2023-05-02T02:31:12;12.55;;;7.57;;
27201;SDS011;14717;46.924;15.474;2023-05-02T02:33:37;13.02;;;7.07;;
27201;SDS011;14717;46.924;15.474;2023-05-02T02:36:06;11.07;;;6.30;;
27201;SDS011;14717;46.924;15.474;2023-05-02T02:38:47;11.27;;;7.10;;
27201;SDS011;14717;46.924;15.474;2023-05-02T02:41:33;11.23;;;6.35;;
27201;SDS011;14717;46.924;15.474;2023-05-02T02:46:52;8.45;;;4.88;;
27201;SDS011;14717;46.924;15.474;2023-05-02T02:49:48;6.93;;;4.90;;
27201;SDS011;14717;46.924;15.474;2023-05-02T02:52:27;8.30;;;4.88;;
27201;SDS011;14717;46.924;15.474;2023-05-02T02:54:57;7.00;;;4.90;;
27201;SDS011;14717;46.924;15.474;2023-05-02T03:00:01;7.80;;;4.32;;
27201;SDS011;14717;46.924;15.474;2023-05-02T03:02:31;7.38;;;4.57;;
27201;SDS011;14717;46.924;15.474;2023-05-02T03:04:57;8.15;;;4.90;;
27201;SDS011;14717;46.924;15.474;2023-05-02T03:07:28;9.00;;;4.82;;
27201;SDS011;14717;46.924;15.474;2023-05-02T03:09:54;7.93;;;4.65;;
27201;SDS011;14717;46.924;15.474;2023-05-02T03:12:19;7.43;;;4.93;;
27201;SDS011;14717;46.924;15.474;2023-05-02T03:14:45;8.38;;;4.75;;
27201;SDS011;14717;46.924;15.474;2023-05-02T03:17:11;7.65;;;5.00;;
27201;SDS011;14717;46.924;15.474;2023-05-02T03:19:36;7.15;;;4.53;;
27201;SDS011;14717;46.924;15.474;2023-05-02T03:22:02;8.13;;;5.00;;
27201;SDS011;14717;46.924;15.474;2023-05-02T03:24:28;6.97;;;4.40;;
27201;SDS011;14717;46.924;15.474;2023-05-02T03:26:56;10.02;;;4.82;;
27201;SDS011;14717;46.924;15.474;2023-05-02T03:29:23;7.80;;;4.63;;
27201;SDS011;14717;46.924;15.474;2023-05-02T03:31:49;8.00;;;5.20;;
27201;SDS011;14717;46.924;15.474;2023-05-02T03:34:15;12.07;;;5.30;;
27201;SDS011;14717;46.924;15.474;2023-05-02T03:36:41;10.25;;;5.18;;
27201;SDS011;14717;46.924;15.474;2023-05-02T03:39:06;10.27;;;5.30;;
27201;SDS011;14717;46.924;15.474;2023-05-02T03:41:32;8.43;;;5.53;;
27201;SDS011;14717;46.924;15.474;2023-05-02T03:43:57;8.18;;;5.32;;
27201;SDS011;14717;46.924;15.474;2023-05-02T03:46:22;9.30;;;5.05;;
27201;SDS011;14717;46.924;15.474;2023-05-02T03:48:48;8.38;;;5.60;;
27201;SDS011;14717;46.924;15.474;2023-05-02T03:51:13;9.75;;;6.07;;
27201;SDS011;14717;46.924;15.474;2023-05-02T03:53:39;9.77;;;6.05;;
27201;SDS011;14717;46.924;15.474;2023-05-02T03:56:04;8.25;;;5.55;;
27201;SDS011;14717;46.924;15.474;2023-05-02T03:58:31;9.43;;;6.30;;
27201;SDS011;14717;46.924;15.474;2023-05-02T04:03:23;8.20;;;5.70;;
27201;SDS011;14717;46.924;15.474;2023-05-02T04:05:48;9.07;;;5.78;;
27201;SDS011;14717;46.924;15.474;2023-05-02T04:08:15;7.55;;;5.40;;
27201;SDS011;14717;46.924;15.474;2023-05-02T04:10:41;10.63;;;5.97;;
27201;SDS011;14717;46.924;15.474;2023-05-02T04:13:06;8.85;;;5.55;;
27201;SDS011;14717;46.924;15.474;2023-05-02T04:15:32;8.23;;;5.22;;
27201;SDS011;14717;46.924;15.474;2023-05-02T04:17:57;9.60;;;5.72;;
27201;SDS011;14717;46.924;15.474;2023-05-02T04:20:23;9.85;;;6.30;;
27201;SDS011;14717;46.924;15.474;2023-05-02T04:22:48;9.32;;;5.70;;
27201;SDS011;14717;46.924;15.474;2023-05-02T04:25:14;9.13;;;6.03;;
27201;SDS011;14717;46.924;15.474;2023-05-02T04:30:06;8.30;;;5.67;;
27201;SDS011;14717;46.924;15.474;2023-05-02T04:32:32;9.57;;;5.63;;
27201;SDS011;14717;46.924;15.474;2023-05-02T04:34:57;11.32;;;6.03;;
27201;SDS011;14717;46.924;15.474;2023-05-02T04:37:23;10.57;;;6.80;;
27201;SDS011;14717;46.924;15.474;2023-05-02T04:39:49;14.23;;;7.43;;
27201;SDS011;14717;46.924;15.474;2023-05-02T04:42:14;8.70;;;6.20;;
27201;SDS011;14717;46.924;15.474;2023-05-02T04:44:40;10.48;;;6.43;;
27201;SDS011;14717;46.924;15.474;2023-05-02T04:47:05;8.80;;;5.93;;
27201;SDS011;14717;46.924;15.474;2023-05-02T04:49:31;10.20;;;5.85;;
27201;SDS011;14717;46.924;15.474;2023-05-02T04:51:56;9.07;;;5.57;;
27201;SDS011;14717;46.924;15.474;2023-05-02T04:54:22;14.05;;;6.10;;
27201;SDS011;14717;46.924;15.474;2023-05-02T04:56:47;12.10;;;6.03;;
27201;SDS011;14717;46.924;15.474;2023-05-02T05:01:38;10.20;;;5.37;;
27201;SDS011;14717;46.924;15.474;2023-05-02T05:04:03;8.95;;;5.82;;
27201;SDS011;14717;46.924;15.474;2023-05-02T05:06:29;9.15;;;5.93;;
27201;SDS011;14717;46.924;15.474;2023-05-02T05:08:55;10.32;;;6.43;;
27201;SDS011;14717;46.924;15.474;2023-05-02T05:11:21;11.50;;;6.43;;
27201;SDS011;14717;46.924;15.474;2023-05-02T05:16:12;13.00;;;6.72;;
27201;SDS011;14717;46.924;15.474;2023-05-02T05:21:06;9.48;;;5.70;;
27201;SDS011;14717;46.924;15.474;2023-05-02T05:23:33;8.55;;;5.30;;
27201;SDS011;14717;46.924;15.474;2023-05-02T05:28:32;8.48;;;5.35;;
27201;SDS011;14717;46.924;15.474;2023-05-02T05:31:03;10.02;;;5.38;;
27201;SDS011;14717;46.924;15.474;2023-05-02T05:33:29;8.32;;;5.22;;
27201;SDS011;14717;46.924;15.474;2023-05-02T05:38:21;14.52;;;6.50;;
27201;SDS011;14717;46.924;15.474;2023-05-02T05:40:48;7.80;;;5.05;;
27201;SDS011;14717;46.924;15.474;2023-05-02T05:43:14;33.25;;;14.65;;
27201;SDS011;14717;46.924;15.474;2023-05-02T05:45:40;29.15;;;13.18;;
27201;SDS011;14717;46.924;15.474;2023-05-02T05:50:30;15.03;;;7.13;;
27201;SDS011;14717;46.924;15.474;2023-05-02T05:52:56;9.80;;;6.05;;
27201;SDS011;14717;46.924;15.474;2023-05-02T05:55:21;12.10;;;6.70;;
27201;SDS011;14717;46.924;15.474;2023-05-02T05:57:46;12.27;;;5.57;;
27201;SDS011;14717;46.924;15.474;2023-05-02T06:00:12;9.65;;;5.35;;
27201;SDS011;14717;46.924;15.474;2023-05-02T06:05:03;7.33;;;5.13;;
27201;SDS011;14717;46.924;15.474;2023-05-02T06:09:54;8.17;;;4.53;;
27201;SDS011;14717;46.924;15.474;2023-05-02T06:14:45;7.93;;;5.43;;
27201;SDS011;14717;46.924;15.474;2023-05-02T06:17:10;9.02;;;5.07;;
27201;SDS011;14717;46.924;15.474;2023-05-02T06:22:01;9.87;;;5.17;;
27201;SDS011;14717;46.924;15.474;2023-05-02T06:26:55;8.40;;;5.18;;
27201;SDS011;14717;46.924;15.474;2023-05-02T06:29:20;7.22;;;4.75;;
27201;SDS011;14717;46.924;15.474;2023-05-02T06:34:10;9.33;;;4.93;;
27201;SDS011;14717;46.924;15.474;2023-05-02T06:39:01;8.10;;;5.03;;
27201;SDS011;14717;46.924;15.474;2023-05-02T06:43:52;7.83;;;5.17;;
27201;SDS011;14717;46.924;15.474;2023-05-02T06:48:44;9.48;;;5.22;;
27201;SDS011;14717;46.924;15.474;2023-05-02T06:51:09;11.05;;;5.60;;
27201;SDS011;14717;46.924;15.474;2023-05-02T06:53:35;8.05;;;5.32;;
27201;SDS011;14717;46.924;15.474;2023-05-02T06:56:00;9.85;;;5.22;;
27201;SDS011;14717;46.924;15.474;2023-05-02T06:58:26;8.90;;;5.18;;
27201;SDS011;14717;46.924;15.474;2023-05-02T07:00:51;9.35;;;5.20;;
27201;SDS011;14717;46.924;15.474;2023-05-02T07:05:42;12.05;;;5.78;;
27201;SDS011;14717;46.924;15.474;2023-05-02T07:10:33;8.55;;;5.60;;
27201;SDS011;14717;46.924;15.474;2023-05-02T07:12:58;9.35;;;5.88;;
27201;SDS011;14717;46.924;15.474;2023-05-02T07:17:49;10.23;;;5.13;;
27201;SDS011;14717;46.924;15.474;2023-05-02T07:22:40;8.73;;;5.13;;
27201;SDS011;14717;46.924;15.474;2023-05-02T07:27:31;8.25;;;5.10;;
27201;SDS011;14717;46.924;15.474;2023-05-02T07:32:22;9.80;;;4.77;;
27201;SDS011;14717;46.924;15.474;2023-05-02T07:34:48;7.65;;;4.82;;
27201;SDS011;14717;46.924;15.474;2023-05-02T07:39:39;9.77;;;4.82;;
27201;SDS011;14717;46.924;15.474;2023-05-02T07:42:04;8.95;;;5.03;;
27201;SDS011;14717;46.924;15.474;2023-05-02T07:46:57;7.80;;;4.57;;
27201;SDS011;14717;46.924;15.474;2023-05-02T07:51:47;7.37;;;4.70;;
27201;SDS011;14717;46.924;15.474;2023-05-02T07:56:39;8.98;;;4.38;;
27201;SDS011;14717;46.924;15.474;2023-05-02T08:01:30;9.80;;;4.87;;
27201;SDS011;14717;46.924;15.474;2023-05-02T08:06:20;8.17;;;4.63;;
27201;SDS011;14717;46.924;15.474;2023-05-02T08:11:11;8.33;;;4.60;;
27201;SDS011;14717;46.924;15.474;2023-05-02T08:16:02;7.83;;;4.90;;
27201;SDS011;14717;46.924;15.474;2023-05-02T08:20:54;5.82;;;4.00;;
27201;SDS011;14717;46.924;15.474;2023-05-02T08:23:20;7.05;;;4.45;;
27201;SDS011;14717;46.924;15.474;2023-05-02T08:28:10;6.97;;;4.30;;
27201;SDS011;14717;46.924;15.474;2023-05-02T08:30:36;7.05;;;4.72;;
27201;SDS011;14717;46.924;15.474;2023-05-02T08:35:29;6.20;;;4.00;;
27201;SDS011;14717;46.924;15.474;2023-05-02T08:37:55;7.75;;;4.10;;
27201;SDS011;14717;46.924;15.474;2023-05-02T08:42:46;6.43;;;3.47;;
27201;SDS011;14717;46.924;15.474;2023-05-02T08:45:12;7.13;;;3.90;;
27201;SDS011;14717;46.924;15.474;2023-05-02T08:47:41;5.78;;;3.58;;
27201;SDS011;14717;46.924;15.474;2023-05-02T08:50:07;6.47;;;3.60;;
27201;SDS011;14717;46.924;15.474;2023-05-02T08:52:35;6.20;;;3.83;;
27201;SDS011;14717;46.924;15.474;2023-05-02T08:55:01;5.68;;;3.60;;
27201;SDS011;14717;46.924;15.474;2023-05-02T08:57:28;6.40;;;3.75;;
27201;SDS011;14717;46.924;15.474;2023-05-02T08:59:55;5.75;;;3.72;;
27201;SDS011;14717;46.924;15.474;2023-05-02T09:04:54;6.57;;;3.40;;
27201;SDS011;14717;46.924;15.474;2023-05-02T09:07:25;4.63;;;3.28;;
27201;SDS011;14717;46.924;15.474;2023-05-02T09:09:51;5.60;;;3.40;;
27201;SDS011;14717;46.924;15.474;2023-05-02T09:14:54;5.65;;;3.65;;
27201;SDS011;14717;46.924;15.474;2023-05-02T09:17:40;5.22;;;3.30;;
27201;SDS011;14717;46.924;15.474;2023-05-02T09:20:12;5.65;;;3.20;;
27201;SDS011;14717;46.924;15.474;2023-05-02T09:22:49;5.28;;;3.60;;
27201;SDS011;14717;46.924;15.474;2023-05-02T09:25:16;5.82;;;3.40;;
27201;SDS011;14717;46.924;15.474;2023-05-02T09:27:53;5.97;;;3.38;;
27201;SDS011;14717;46.924;15.474;2023-05-02T09:30:20;5.07;;;3.17;;
27201;SDS011;14717;46.924;15.474;2023-05-02T09:32:50;6.72;;;3.22;;
27201;SDS011;14717;46.924;15.474;2023-05-02T09:35:16;5.15;;;3.17;;
27201;SDS011;14717;46.924;15.474;2023-05-02T09:37:51;5.03;;;3.28;;
27201;SDS011;14717;46.924;15.474;2023-05-02T09:40:18;5.90;;;3.72;;
27201;SDS011;14717;46.924;15.474;2023-05-02T09:42:44;4.32;;;3.03;;
27201;SDS011;14717;46.924;15.474;2023-05-02T09:47:43;7.22;;;3.15;;
27201;SDS011;14717;46.924;15.474;2023-05-02T09:52:34;4.95;;;3.10;;
27201;SDS011;14717;46.924;15.474;2023-05-02T09:57:38;6.07;;;2.70;;
27201;SDS011;14717;46.924;15.474;2023-05-02T10:00:05;5.07;;;2.90;;
27201;SDS011;14717;46.924;15.474;2023-05-02T10:02:34;6.20;;;2.95;;
27201;SDS011;14717;46.924;15.474;2023-05-02T10:07:25;3.92;;;2.28;;
27201;SDS011;14717;46.924;15.474;2023-05-02T10:12:18;4.43;;;2.90;;
27201;SDS011;14717;46.924;15.474;2023-05-02T10:14:50;5.47;;;3.22;;
27201;SDS011;14717;46.924;15.474;2023-05-02T10:17:21;4.50;;;2.92;;
27201;SDS011;14717;46.924;15.474;2023-05-02T10:19:55;5.82;;;2.88;;
27201;SDS011;14717;46.924;15.474;2023-05-02T10:22:24;4.65;;;3.42;;
27201;SDS011;14717;46.924;15.474;2023-05-02T10:24:51;4.20;;;2.70;;
27201;SDS011;14717;46.924;15.474;2023-05-02T10:27:17;5.38;;;2.90;;
27201;SDS011;14717;46.924;15.474;2023-05-02T10:29:43;4.07;;;2.58;;
27201;SDS011;14717;46.924;15.474;2023-05-02T10:32:10;5.00;;;2.70;;
27201;SDS011;14717;46.924;15.474;2023-05-02T10:34:39;5.57;;;2.80;;
27201;SDS011;14717;46.924;15.474;2023-05-02T10:37:05;4.63;;;2.67;;
27201;SDS011;14717;46.924;15.474;2023-05-02T10:41:57;4.90;;;2.45;;
27201;SDS011;14717;46.924;15.474;2023-05-02T10:44:36;3.75;;;2.40;;
27201;SDS011;14717;46.924;15.474;2023-05-02T10:50:01;5.35;;;2.60;;
27201;SDS011;14717;46.924;15.474;2023-05-02T11:00:23;3.55;;;2.08;;
27201;SDS011;14717;46.924;15.474;2023-05-02T11:02:49;4.20;;;2.33;;
27201;SDS011;14717;46.924;15.474;2023-05-02T11:07:41;3.35;;;1.90;;
27201;SDS011;14717;46.924;15.474;2023-05-02T11:12:47;4.45;;;2.00;;
27201;SDS011;14717;46.924;15.474;2023-05-02T11:15:14;3.53;;;2.10;;
27201;SDS011;14717;46.924;15.474;2023-05-02T11:20:41;4.07;;;1.80;;
27201;SDS011;14717;46.924;15.474;2023-05-02T11:34:01;3.42;;;2.00;;
27201;SDS011;14717;46.924;15.474;2023-05-02T11:36:31;4.22;;;2.10;;
27201;SDS011;14717;46.924;15.474;2023-05-02T11:41:38;4.53;;;2.38;;
27201;SDS011;14717;46.924;15.474;2023-05-02T11:44:04;4.07;;;2.35;;
27201;SDS011;14717;46.924;15.474;2023-05-02T11:48:55;3.40;;;2.20;;
27201;SDS011;14717;46.924;15.474;2023-05-02T11:51:21;3.45;;;2.10;;
27201;SDS011;14717;46.924;15.474;2023-05-02T11:53:47;5.78;;;2.72;;
27201;SDS011;14717;46.924;15.474;2023-05-02T11:58:39;3.78;;;2.03;;
27201;SDS011;14717;46.924;15.474;2023-05-02T12:03:39;3.42;;;1.65;;
27201;SDS011;14717;46.924;15.474;2023-05-02T12:08:35;4.22;;;1.90;;
27201;SDS011;14717;46.924;15.474;2023-05-02T12:11:01;7.68;;;3.55;;
27201;SDS011;14717;46.924;15.474;2023-05-02T12:15:53;3.47;;;1.80;;
27201;SDS011;14717;46.924;15.474;2023-05-02T12:20:47;3.33;;;1.88;;
27201;SDS011;14717;46.924;15.474;2023-05-02T12:23:15;3.13;;;2.00;;
27201;SDS011;14717;46.924;15.474;2023-05-02T12:28:06;4.72;;;2.00;;
27201;SDS011;14717;46.924;15.474;2023-05-02T12:30:33;3.78;;;2.25;;
27201;SDS011;14717;46.924;15.474;2023-05-02T12:33:00;3.30;;;1.65;;
27201;SDS011;14717;46.924;15.474;2023-05-02T12:35:27;4.45;;;2.00;;
27201;SDS011;14717;46.924;15.474;2023-05-02T12:37:53;2.70;;;1.73;;
27201;SDS011;14717;46.924;15.474;2023-05-02T12:43:00;3.15;;;1.90;;
27201;SDS011;14717;46.924;15.474;2023-05-02T12:45:32;4.55;;;2.20;;
27201;SDS011;14717;46.924;15.474;2023-05-02T12:47:59;3.22;;;1.85;;
27201;SDS011;14717;46.924;15.474;2023-05-02T12:50:45;3.78;;;1.80;;
27201;SDS011;14717;46.924;15.474;2023-05-02T12:55:36;3.50;;;1.90;;
27201;SDS011;14717;46.924;15.474;2023-05-02T13:00:31;2.60;;;1.70;;
27201;SDS011;14717;46.924;15.474;2023-05-02T13:02:58;3.83;;;1.80;;
27201;SDS011;14717;46.924;15.474;2023-05-02T13:07:49;3.13;;;1.85;;
27201;SDS011;14717;46.924;15.474;2023-05-02T13:12:42;3.08;;;1.50;;
27201;SDS011;14717;46.924;15.474;2023-05-02T13:15:08;3.53;;;2.00;;
27201;SDS011;14717;46.924;15.474;2023-05-02T13:19:59;3.17;;;1.75;;
27201;SDS011;14717;46.924;15.474;2023-05-02T13:22:26;2.60;;;1.60;;
27201;SDS011;14717;46.924;15.474;2023-05-02T13:24:52;3.03;;;1.90;;
27201;SDS011;14717;46.924;15.474;2023-05-02T13:29:44;2.97;;;1.60;;
27201;SDS011;14717;46.924;15.474;2023-05-02T13:32:09;4.90;;;2.58;;
27201;SDS011;14717;46.924;15.474;2023-05-02T13:37:00;2.35;;;1.52;;
27201;SDS011;14717;46.924;15.474;2023-05-02T13:41:51;2.67;;;1.47;;
27201;SDS011;14717;46.924;15.474;2023-05-02T13:44:16;3.90;;;1.70;;
27201;SDS011;14717;46.924;15.474;2023-05-02T13:49:07;4.97;;;1.73;;
27201;SDS011;14717;46.924;15.474;2023-05-02T13:53:57;3.53;;;1.80;;
27201;SDS011;14717;46.924;15.474;2023-05-02T13:56:23;3.20;;;1.90;;
27201;SDS011;14717;46.924;15.474;2023-05-02T13:58:49;3.92;;;2.00;;
27201;SDS011;14717;46.924;15.474;2023-05-02T14:03:39;3.22;;;1.40;;
27201;SDS011;14717;46.924;15.474;2023-05-02T14:08:30;2.45;;;1.52;;
27201;SDS011;14717;46.924;15.474;2023-05-02T14:13:21;2.25;;;1.30;;
27201;SDS011;14717;46.924;15.474;2023-05-02T14:15:46;4.35;;;1.27;;
27201;SDS011;14717;46.924;15.474;2023-05-02T14:18:12;1.92;;;1.23;;
27201;SDS011;14717;46.924;15.474;2023-05-02T14:20:37;2.35;;;1.20;;
27201;SDS011;14717;46.924;15.474;2023-05-02T14:23:03;1.77;;;1.10;;
27201;SDS011;14717;46.924;15.474;2023-05-02T14:25:28;1.80;;;1.20;;
27201;SDS011;14717;46.924;15.474;2023-05-02T14:30:19;2.00;;;1.20;;
27201;SDS011;14717;46.924;15.474;2023-05-02T14:32:44;2.65;;;1.20;;
27201;SDS011;14717;46.924;15.474;2023-05-02T14:35:10;2.20;;;1.00;;
27201;SDS011;14717;46.924;15.474;2023-05-02T14:40:00;1.48;;;1.00;;
27201;SDS011;14717;46.924;15.474;2023-05-02T14:42:26;2.10;;;1.00;;
27201;SDS011;14717;46.924;15.474;2023-05-02T14:47:17;1.17;;;0.80;;
27201;SDS011;14717;46.924;15.474;2023-05-02T14:52:08;1.75;;;1.13;;
27201;SDS011;14717;46.924;15.474;2023-05-02T14:54:33;3.17;;;1.40;;
27201;SDS011;14717;46.924;15.474;2023-05-02T14:56:59;2.35;;;1.40;;
27201;SDS011;14717;46.924;15.474;2023-05-02T14:59:27;3.90;;;1.52;;
27201;SDS011;14717;46.924;15.474;2023-05-02T15:01:52;2.20;;;1.50;;
27201;SDS011;14717;46.924;15.474;2023-05-02T15:04:18;4.65;;;1.40;;
27201;SDS011;14717;46.924;15.474;2023-05-02T15:06:43;4.10;;;1.67;;
27201;SDS011;14717;46.924;15.474;2023-05-02T15:09:09;3.45;;;1.70;;
27201;SDS011;14717;46.924;15.474;2023-05-02T15:11:36;4.65;;;2.05;;
27201;SDS011;14717;46.924;15.474;2023-05-02T15:14:01;3.55;;;1.83;;
27201;SDS011;14717;46.924;15.474;2023-05-02T15:16:28;3.85;;;1.55;;
27201;SDS011;14717;46.924;15.474;2023-05-02T15:18:54;5.68;;;2.67;;
27201;SDS011;14717;46.924;15.474;2023-05-02T15:21:20;2.60;;;1.42;;
27201;SDS011;14717;46.924;15.474;2023-05-02T15:23:45;1.98;;;1.20;;
27201;SDS011;14717;46.924;15.474;2023-05-02T15:28:36;2.58;;;1.25;;
27201;SDS011;14717;46.924;15.474;2023-05-02T15:33:27;1.77;;;1.15;;
27201;SDS011;14717;46.924;15.474;2023-05-02T15:35:53;3.72;;;1.40;;
27201;SDS011;14717;46.924;15.474;2023-05-02T15:38:20;6.05;;;3.00;;
27201;SDS011;14717;46.924;15.474;2023-05-02T15:41:19;2.83;;;1.48;;
27201;SDS011;14717;46.924;15.474;2023-05-02T15:43:37;2.10;;;1.13;;
27201;SDS011;14717;46.924;15.474;2023-05-02T15:46:03;2.97;;;1.60;;
27201;SDS011;14717;46.924;15.474;2023-05-02T15:48:29;2.15;;;1.30;;
27201;SDS011;14717;46.924;15.474;2023-05-02T15:50:57;2.42;;;1.20;;
27201;SDS011;14717;46.924;15.474;2023-05-02T15:53:22;1.60;;;1.05;;
27201;SDS011;14717;46.924;15.474;2023-05-02T15:55:48;2.00;;;1.15;;
27201;SDS011;14717;46.924;15.474;2023-05-02T15:58:16;1.85;;;1.10;;
27201;SDS011;14717;46.924;15.474;2023-05-02T16:00:43;1.10;;;0.80;;
27201;SDS011;14717;46.924;15.474;2023-05-02T16:05:34;2.78;;;1.00;;
27201;SDS011;14717;46.924;15.474;2023-05-02T16:08:00;3.80;;;1.02;;
27201;SDS011;14717;46.924;15.474;2023-05-02T16:10:26;1.30;;;0.90;;
27201;SDS011;14717;46.924;15.474;2023-05-02T16:15:17;2.08;;;1.10;;
27201;SDS011;14717;46.924;15.474;2023-05-02T16:17:43;2.75;;;0.90;;
27201;SDS011;14717;46.924;15.474;2023-05-02T16:20:09;2.63;;;1.20;;
27201;SDS011;14717;46.924;15.474;2023-05-02T16:22:35;3.83;;;1.23;;
27201;SDS011;14717;46.924;15.474;2023-05-02T16:25:01;3.50;;;1.50;;
27201;SDS011;14717;46.924;15.474;2023-05-02T16:27:26;1.95;;;1.10;;
27201;SDS011;14717;46.924;15.474;2023-05-02T16:29:51;2.95;;;1.00;;
27201;SDS011;14717;46.924;15.474;2023-05-02T16:32:17;1.85;;;1.05;;
27201;SDS011;14717;46.924;15.474;2023-05-02T16:34:42;2.10;;;1.20;;
27201;SDS011;14717;46.924;15.474;2023-05-02T16:37:07;1.88;;;0.82;;
27201;SDS011;14717;46.924;15.474;2023-05-02T16:39:33;1.52;;;0.88;;
27201;SDS011;14717;46.924;15.474;2023-05-02T16:41:59;3.35;;;1.20;;
27201;SDS011;14717;46.924;15.474;2023-05-02T16:44:25;1.63;;;1.00;;
27201;SDS011;14717;46.924;15.474;2023-05-02T16:46:51;3.05;;;1.60;;
27201;SDS011;14717;46.924;15.474;2023-05-02T16:49:16;9.93;;;3.35;;
27201;SDS011;14717;46.924;15.474;2023-05-02T16:51:42;2.50;;;1.40;;
27201;SDS011;14717;46.924;15.474;2023-05-02T16:54:07;2.17;;;1.30;;
27201;SDS011;14717;46.924;15.474;2023-05-02T16:56:34;2.95;;;1.15;;
27201;SDS011;14717;46.924;15.474;2023-05-02T16:59:00;4.25;;;2.53;;
27201;SDS011;14717;46.924;15.474;2023-05-02T17:01:25;2.80;;;1.73;;
27201;SDS011;14717;46.924;15.474;2023-05-02T17:03:51;3.70;;;2.40;;
27201;SDS011;14717;46.924;15.474;2023-05-02T17:06:16;2.80;;;1.50;;
27201;SDS011;14717;46.924;15.474;2023-05-02T17:08:41;1.95;;;1.20;;
27201;SDS011;14717;46.924;15.474;2023-05-02T17:11:07;3.15;;;1.77;;
27201;SDS011;14717;46.924;15.474;2023-05-02T17:13:33;3.03;;;1.35;;
27201;SDS011;14717;46.924;15.474;2023-05-02T17:18:25;2.42;;;1.20;;
27201;SDS011;14717;46.924;15.474;2023-05-02T17:23:17;2.28;;;1.20;;
27201;SDS011;14717;46.924;15.474;2023-05-02T17:25:42;5.18;;;1.45;;
27201;SDS011;14717;46.924;15.474;2023-05-02T17:28:08;2.88;;;1.30;;
27201;SDS011;14717;46.924;15.474;2023-05-02T17:30:33;3.30;;;1.52;;
27201;SDS011;14717;46.924;15.474;2023-05-02T17:32:59;2.80;;;1.05;;
27201;SDS011;14717;46.924;15.474;2023-05-02T17:35:25;4.65;;;1.77;;
27201;SDS011;14717;46.924;15.474;2023-05-02T17:37:50;4.45;;;1.60;;
27201;SDS011;14717;46.924;15.474;2023-05-02T17:40:16;2.75;;;1.52;;
27201;SDS011;14717;46.924;15.474;2023-05-02T17:42:42;4.28;;;1.35;;
27201;SDS011;14717;46.924;15.474;2023-05-02T17:45:12;2.35;;;1.45;;
27201;SDS011;14717;46.924;15.474;2023-05-02T17:47:37;5.20;;;1.40;;
27201;SDS011;14717;46.924;15.474;2023-05-02T17:50:03;2.70;;;1.20;;
27201;SDS011;14717;46.924;15.474;2023-05-02T17:52:30;3.88;;;1.33;;
27201;SDS011;14717;46.924;15.474;2023-05-02T17:54:56;3.08;;;1.90;;
27201;SDS011;14717;46.924;15.474;2023-05-02T17:57:21;2.72;;;1.80;;
27201;SDS011;14717;46.924;15.474;2023-05-02T17:59:47;2.35;;;1.58;;
27201;SDS011;14717;46.924;15.474;2023-05-02T18:02:14;2.83;;;1.50;;
27201;SDS011;14717;46.924;15.474;2023-05-02T18:04:41;2.88;;;1.52;;
27201;SDS011;14717;46.924;15.474;2023-05-02T18:07:07;2.67;;;1.50;;
27201;SDS011;14717;46.924;15.474;2023-05-02T18:09:32;2.38;;;1.50;;
27201;SDS011;14717;46.924;15.474;2023-05-02T18:11:58;2.10;;;1.25;;
27201;SDS011;14717;46.924;15.474;2023-05-02T18:16:50;3.17;;;1.30;;
27201;SDS011;14717;46.924;15.474;2023-05-02T18:19:16;3.08;;;1.25;;
27201;SDS011;14717;46.924;15.474;2023-05-02T18:21:45;2.20;;;1.30;;
27201;SDS011;14717;46.924;15.474;2023-05-02T18:24:10;1.45;;;0.88;;
27201;SDS011;14717;46.924;15.474;2023-05-02T18:26:36;3.50;;;1.33;;
27201;SDS011;14717;46.924;15.474;2023-05-02T18:29:01;2.25;;;1.13;;
27201;SDS011;14717;46.924;15.474;2023-05-02T18:31:27;5.63;;;1.50;;
27201;SDS011;14717;46.924;15.474;2023-05-02T18:33:52;2.88;;;1.50;;
27201;SDS011;14717;46.924;15.474;2023-05-02T18:36:25;2.53;;;1.58;;